Time;durP1;ratioP1;P1;durP2;ratioP2;P2;SDS_P1;SDS_P2;PMS_P1;PMS_P2;Temp;Humidity;BMP_temperature;BMP_pressure;BME280_temperature;BME280_humidity;BME280_pressure;Samples;Min_cycle;Max_cycle;Signal;HPM_P1;HPM_P2
2021/12/12 00:01:06;;;;;;;11.55;6.35;;;;;;;16.75;26.80;100822.22;5108166;28;20074;-66
2021/12/12 00:03:45;;;;;;;11.40;6.63;;;;;;;16.74;26.60;100812.50;5107774;28;20293;-66
2021/12/12 00:06:27;;;;;;;11.23;5.50;;;;;;;16.74;26.83;100827.72;5108368;28;20051;-66
2021/12/12 00:08:54;;;;;;;;;;;;;;;16.67;26.53;100827.38;5108487;28;20032;-66
2021/12/12 00:11:25;;;;;;;11.93;6.47;;;;;;;16.69;26.56;100830.75;5107836;28;19911;-66
2021/12/12 00:13:56;;;;;;;10.90;6.40;;;;;;;16.72;26.57;100827.00;5108192;28;20146;-66
2021/12/12 00:16:22;;;;;;;13.52;6.53;;;;;;;16.76;26.76;100821.25;5107970;28;20097;-66
2021/12/12 00:18:48;;;;;;;11.98;6.32;;;;;;;16.77;26.64;100828.31;5107789;28;20040;-67
2021/12/12 00:21:17;;;;;;;10.90;6.63;;;;;;;16.81;26.62;100820.03;5107768;28;20034;-65
2021/12/12 00:23:43;;;;;;;12.50;7.15;;;;;;;16.81;26.38;100828.88;5107617;28;20074;-66
2021/12/12 00:26:09;;;;;;;11.60;6.25;;;;;;;16.84;26.29;100833.97;5108124;28;20089;-65
2021/12/12 00:28:35;;;;;;;10.00;5.93;;;;;;;16.82;26.64;100833.25;5107764;28;20038;-66
2021/12/12 00:31:08;;;;;;;9.88;6.03;;;;;;;16.83;26.51;100828.75;5107655;28;20075;-66
2021/12/12 00:33:42;;;;;;;11.60;5.95;;;;;;;16.85;26.33;100837.47;5107745;28;20027;-66
2021/12/12 00:36:08;;;;;;;10.35;6.32;;;;;;;16.85;26.16;100835.66;5107952;28;20032;-67
2021/12/12 00:38:35;;;;;;;10.98;6.22;;;;;;;16.85;26.53;100835.66;5107376;28;20038;-66
2021/12/12 00:41:05;;;;;;;11.02;6.70;;;;;;;16.84;26.30;100843.81;5107573;28;20032;-66
2021/12/12 00:43:40;;;;;;;10.80;6.10;;;;;;;16.84;26.55;100846.47;5107267;28;20027;-63
2021/12/12 00:46:09;;;;;;;10.23;5.93;;;;;;;16.84;26.28;100839.31;5105156;28;20035;-67
2021/12/12 00:48:36;;;;;;;9.13;6.07;;;;;;;16.84;26.49;100846.47;5107219;28;20032;-64
2021/12/12 00:51:07;;;;;;;11.05;5.78;;;;;;;16.88;26.78;100832.75;5107343;28;20152;-61
2021/12/12 00:53:34;;;;;;;10.85;6.28;;;;;;;16.91;26.84;100842.31;5107228;28;20130;-64
2021/12/12 00:56:00;;;;;;;10.13;5.63;;;;;;;16.96;26.49;100837.47;5107260;28;20040;-65
2021/12/12 00:58:26;;;;;;;8.77;5.97;;;;;;;16.98;26.75;100848.03;5106825;28;20098;-63
2021/12/12 01:01:27;;;;;;;8.80;5.53;;;;;;;16.97;26.67;100841.84;5107164;28;20024;-64
2021/12/12 01:04:00;;;;;;;12.65;5.90;;;;;;;16.99;26.54;100845.19;5098815;28;20064;-63
2021/12/12 01:06:27;;;;;;;9.82;5.32;;;;;;;16.99;26.88;100842.53;5107078;28;20028;-63
2021/12/12 01:08:55;;;;;;;10.52;5.93;;;;;;;17.02;27.24;100847.63;5106944;28;20040;-63
2021/12/12 01:11:30;;;;;;;11.35;5.45;;;;;;;17.03;27.39;100843.97;5107049;28;20028;-63
2021/12/12 01:13:57;;;;;;;10.27;5.85;;;;;;;17.02;27.30;100846.78;5106210;28;20031;-63
2021/12/12 01:16:36;;;;;;;9.68;5.20;;;;;;;17.03;27.24;100841.31;5106914;28;20028;-63
2021/12/12 01:19:16;;;;;;;9.00;5.30;;;;;;;17.00;27.31;100846.91;5106898;28;20020;-63
2021/12/12 01:21:46;;;;;;;9.90;5.05;;;;;;;16.99;27.23;100847.03;5106964;28;20044;-63
2021/12/12 01:24:19;;;;;;;11.70;6.28;;;;;;;16.98;27.64;100840.00;5106776;28;20081;-64
2021/12/12 01:26:46;;;;;;;12.68;7.22;;;;;;;16.96;27.39;100841.94;5106867;28;20081;-63
2021/12/12 01:29:14;;;;;;;11.57;6.55;;;;;;;16.95;27.51;100843.78;5097604;28;20109;-63
2021/12/12 01:31:47;;;;;;;10.13;6.13;;;;;;;16.95;27.04;100834.91;5086395;28;20056;-63
2021/12/12 01:34:16;;;;;;;12.23;6.68;;;;;;;16.96;26.99;100831.25;5092340;28;20214;-63
2021/12/12 01:39:29;;;;;;;11.43;7.07;;;;;;;16.95;27.34;100824.22;5106528;28;20034;-64
2021/12/12 01:41:57;;;;;;;11.50;7.07;;;;;;;16.93;27.42;100819.81;5106613;28;20217;-63
2021/12/12 01:44:25;;;;;;;9.43;6.30;;;;;;;16.93;27.47;100816.31;5106336;28;20032;-63
2021/12/12 01:47:13;;;;;;;11.38;6.68;;;;;;;16.92;27.43;100810.09;5106529;28;20058;-63
2021/12/12 01:49:45;;;;;;;12.75;7.25;;;;;;;16.91;27.05;100805.72;5099182;28;20028;-63
2021/12/12 01:52:18;;;;;;;13.07;6.72;;;;;;;16.92;27.42;100811.94;5106481;28;20117;-63
2021/12/12 01:54:47;;;;;;;12.15;6.70;;;;;;;16.91;27.73;100812.91;5106531;28;20028;-63
2021/12/12 01:57:21;;;;;;;12.13;6.78;;;;;;;16.91;27.43;100816.41;5106363;28;20064;-63
2021/12/12 01:59:49;;;;;;;10.40;6.55;;;;;;;16.91;27.42;100812.91;5106405;28;20037;-63
2021/12/12 02:02:27;;;;;;;10.57;6.35;;;;;;;16.91;27.34;100811.06;5106418;28;20031;-63
2021/12/12 02:04:59;;;;;;;11.70;6.32;;;;;;;16.90;27.30;100809.41;5106464;28;20040;-63
2021/12/12 02:07:33;;;;;;;11.52;7.25;;;;;;;16.90;27.39;100813.88;5106212;28;20077;-64
2021/12/12 02:10:04;;;;;;;11.82;5.88;;;;;;;16.89;27.75;100812.19;5086196;28;20016;-63
2021/12/12 02:12:29;;;;;;;12.63;6.97;;;;;;;16.89;27.80;100812.19;5085940;28;20062;-64
2021/12/12 02:14:57;;;;;;;11.73;5.80;;;;;;;16.89;27.61;100809.50;5086088;28;20060;-63
2021/12/12 02:17:34;;;;;;;14.20;6.75;;;;;;;16.88;27.51;100808.69;5086196;28;20154;-64
2021/12/12 02:20:12;;;;;;;9.98;5.47;;;;;;;16.87;28.08;100808.78;5096423;28;20040;-63
2021/12/12 02:23:54;;;;;;;11.07;5.78;;;;;;;16.87;27.67;100806.13;5106158;28;20036;-64
2021/12/12 02:36:46;;;;;;;11.07;5.97;;;;;;;16.85;27.65;100797.38;5110068;28;20027;-63
2021/12/12 02:39:15;;;;;;;10.32;6.07;;;;;;;16.84;27.64;100798.34;5109862;28;20225;-63
2021/12/12 02:41:54;;;;;;;10.93;6.10;;;;;;;16.83;27.63;100802.88;5109924;28;20016;-63
2021/12/12 02:44:26;;;;;;;8.93;5.43;;;;;;;16.83;27.85;100794.84;5109867;28;20024;-63
2021/12/12 02:46:54;;;;;;;11.82;6.43;;;;;;;16.83;27.76;100794.03;5110020;28;20068;-63
2021/12/12 02:49:36;;;;;;;11.50;7.05;;;;;;;16.84;27.96;100804.56;5109697;28;20225;-63
2021/12/12 02:52:05;;;;;;;12.05;5.82;;;;;;;16.82;27.95;100801.16;5109565;28;20083;-63
2021/12/12 02:54:31;;;;;;;10.60;5.78;;;;;;;16.84;27.55;100801.03;5109682;28;20042;-63
2021/12/12 02:56:57;;;;;;;12.18;6.43;;;;;;;16.83;27.93;100802.03;5109587;28;20028;-63
2021/12/12 02:59:24;;;;;;;11.38;6.40;;;;;;;16.84;27.83;100798.34;5109468;28;20122;-63
2021/12/12 03:01:54;;;;;;;11.38;6.30;;;;;;;16.84;28.09;100790.34;5109533;28;20083;-63
2021/12/12 03:04:20;;;;;;;9.93;6.37;;;;;;;16.83;27.77;100791.34;5109524;28;20027;-63
2021/12/12 03:06:46;;;;;;;12.65;6.25;;;;;;;16.83;27.62;100784.16;5109456;28;20430;-64
2021/12/12 03:09:20;;;;;;;13.45;6.88;;;;;;;16.82;27.92;100789.66;5090539;28;20051;-64
2021/12/12 03:11:49;;;;;;;9.75;5.25;;;;;;;16.84;27.43;100796.53;5088992;28;20070;-63
2021/12/12 03:14:15;;;;;;;10.75;6.13;;;;;;;16.83;27.70;100797.53;5089026;28;20074;-63
2021/12/12 03:16:41;;;;;;;10.15;6.05;;;;;;;16.82;27.86;100789.66;5088896;28;20059;-63
2021/12/12 03:19:07;;;;;;;11.60;5.85;;;;;;;16.81;27.83;100782.59;5088747;28;20032;-63
2021/12/12 03:21:42;;;;;;;10.25;5.97;;;;;;;16.82;27.84;100779.78;5088852;28;20036;-64
2021/12/12 03:24:15;;;;;;;9.43;5.90;;;;;;;16.82;27.67;100786.97;5101275;28;20028;-64
2021/12/12 03:26:43;;;;;;;8.95;5.70;;;;;;;16.78;27.68;100770.34;5108913;28;20085;-63
2021/12/12 03:29:09;;;;;;;11.60;6.38;;;;;;;16.80;27.81;100773.72;5108851;28;20024;-64
2021/12/12 03:31:40;;;;;;;12.27;5.50;;;;;;;16.80;27.65;100781.75;5108784;28;20145;-63
2021/12/12 03:34:15;;;;;;;11.15;5.88;;;;;;;16.77;27.66;100774.84;5108722;28;20043;-63
2021/12/12 03:36:43;;;;;;;13.07;6.78;;;;;;;16.77;27.85;100785.53;5108491;28;20161;-64
2021/12/12 03:39:19;;;;;;;11.73;5.72;;;;;;;16.77;28.14;100782.00;5108301;28;20040;-64
2021/12/12 03:41:46;;;;;;;10.02;5.97;;;;;;;16.77;28.07;100779.31;5108616;28;20051;-64
2021/12/12 03:44:16;;;;;;;9.38;6.03;;;;;;;16.77;28.06;100772.16;5108187;28;20028;-64
2021/12/12 03:46:45;;;;;;;12.30;6.43;;;;;;;16.78;27.93;100767.66;5108537;28;20426;-65
2021/12/12 03:49:11;;;;;;;10.55;5.97;;;;;;;16.77;28.28;100774.84;5108419;28;20055;-64
2021/12/12 03:51:40;;;;;;;8.77;5.32;;;;;;;16.76;28.18;100775.81;5108456;28;20083;-64
2021/12/12 03:54:06;;;;;;;11.77;6.40;;;;;;;16.77;27.95;100782.84;5108264;28;20085;-64
2021/12/12 03:56:32;;;;;;;9.75;5.00;;;;;;;16.75;27.89;100775.97;5108324;28;20095;-64
2021/12/12 03:58:58;;;;;;;12.43;6.72;;;;;;;16.75;28.14;100784.81;5108373;28;20163;-64
2021/12/12 04:01:37;;;;;;;10.02;5.97;;;;;;;16.76;28.02;100785.69;5108354;28;20039;-63
2021/12/12 04:04:38;;;;;;;11.15;5.80;;;;;;;16.74;27.93;100769.75;5108313;28;20028;-64
2021/12/12 04:07:09;;;;;;;14.15;6.28;;;;;;;16.75;27.88;100774.13;5108158;28;20028;-63
2021/12/12 04:09:35;;;;;;;9.70;5.30;;;;;;;16.74;28.06;100769.75;5108265;28;20032;-63
2021/12/12 04:12:05;;;;;;;10.00;5.95;;;;;;;16.77;28.14;100776.66;5108079;28;20087;-63
2021/12/12 04:14:31;;;;;;;10.75;6.18;;;;;;;16.75;28.19;100767.94;5108128;28;20016;-64
2021/12/12 04:17:04;;;;;;;11.32;6.70;;;;;;;16.77;27.86;100780.19;5108047;28;20035;-63
2021/12/12 04:19:30;;;;;;;10.88;6.28;;;;;;;16.78;28.09;100789.91;5108083;28;20019;-63
2021/12/12 04:21:56;;;;;;;12.65;5.72;;;;;;;16.78;28.41;100797.06;5108216;28;20055;-63
2021/12/12 04:24:31;;;;;;;14.30;7.05;;;;;;;16.76;27.69;100797.19;5107897;28;20245;-63
2021/12/12 04:26:58;;;;;;;10.82;6.13;;;;;;;16.75;28.09;100792.84;5107759;28;20031;-63
2021/12/12 04:29:32;;;;;;;11.95;6.82;;;;;;;16.75;28.14;100792.00;5108157;28;20118;-63
2021/12/12 04:32:02;;;;;;;12.55;7.03;;;;;;;16.74;28.23;100791.13;5107377;28;20300;-63
2021/12/12 04:34:31;;;;;;;11.25;5.93;;;;;;;16.71;28.24;100795.91;5107718;28;20050;-63
2021/12/12 04:37:02;;;;;;;12.02;6.65;;;;;;;16.71;28.10;100793.22;5107909;28;20020;-63
2021/12/12 04:39:35;;;;;;;14.45;6.95;;;;;;;16.71;28.08;100802.06;5107594;28;20108;-63
2021/12/12 04:42:14;;;;;;;14.43;7.13;;;;;;;16.72;28.08;100816.31;5107735;28;20047;-63
2021/12/12 04:44:42;;;;;;;11.13;6.88;;;;;;;16.71;28.22;100814.59;5107324;28;20030;-63
2021/12/12 04:50:07;;;;;;;13.82;7.43;;;;;;;16.71;27.97;100810.09;5106506;28;20058;-63
2021/12/12 04:52:48;;;;;;;12.82;7.55;;;;;;;16.74;28.20;100801.81;5107224;28;20074;-64
2021/12/12 04:55:55;;;;;;;11.80;6.50;;;;;;;16.73;28.02;100812.66;5107395;28;20095;-64
2021/12/12 04:58:23;;;;;;;12.65;6.78;;;;;;;16.71;28.14;100820.78;5106000;28;20039;-63
2021/12/12 05:01:03;;;;;;;13.45;7.18;;;;;;;16.70;28.15;100813.75;5107554;28;20028;-63
2021/12/12 05:03:41;;;;;;;13.48;7.72;;;;;;;16.69;28.21;100817.38;5107142;28;20028;-64
2021/12/12 05:06:15;;;;;;;14.95;7.53;;;;;;;16.67;27.95;100822.03;5107183;28;20062;-63
2021/12/12 05:08:46;;;;;;;14.68;6.88;;;;;;;16.68;28.02;100826.41;5107120;28;20253;-64
2021/12/12 05:11:20;;;;;;;12.90;7.00;;;;;;;16.67;28.18;100830.06;5107076;28;20020;-64
2021/12/12 05:13:55;;;;;;;10.98;6.53;;;;;;;16.67;28.09;100830.06;5107232;28;20036;-64
2021/12/12 05:16:31;;;;;;;14.75;8.10;;;;;;;16.69;27.68;100830.75;5107285;28;20100;-64
2021/12/12 05:19:08;;;;;;;14.10;7.45;;;;;;;16.66;28.38;100831.03;5106990;28;20024;-64
2021/12/12 05:21:39;;;;;;;12.40;7.40;;;;;;;16.67;28.43;100823.84;5106814;28;20048;-64
2021/12/12 05:24:09;;;;;;;15.32;8.20;;;;;;;16.64;27.93;100822.28;5106860;28;20055;-64
2021/12/12 05:26:42;;;;;;;12.05;7.40;;;;;;;16.64;28.06;100822.28;5106877;28;20035;-64
2021/12/12 05:29:13;;;;;;;15.23;8.70;;;;;;;16.63;27.96;100820.59;5106708;28;20058;-64
2021/12/12 05:31:45;;;;;;;11.77;7.53;;;;;;;16.62;28.04;100832.25;5106669;28;20233;-64
2021/12/12 05:34:11;;;;;;;13.82;8.07;;;;;;;16.62;27.83;100825.06;5106407;28;20246;-64
2021/12/12 05:36:37;;;;;;;12.63;7.50;;;;;;;16.63;27.72;100826.78;5106725;28;20032;-64
2021/12/12 05:39:05;;;;;;;12.02;7.55;;;;;;;16.61;27.94;100828.75;5106676;28;20044;-64
2021/12/12 05:41:31;;;;;;;13.32;7.70;;;;;;;16.63;28.23;100823.28;5106898;28;20140;-64
2021/12/12 05:43:57;;;;;;;13.65;7.78;;;;;;;16.65;27.98;100815.97;5106463;28;20079;-64
2021/12/12 05:46:23;;;;;;;13.18;7.68;;;;;;;16.61;27.76;100820.75;5106531;28;20040;-64
2021/12/12 05:48:50;;;;;;;14.77;8.68;;;;;;;16.62;27.64;100813.56;5106550;28;20063;-64
2021/12/12 05:51:20;;;;;;;12.40;7.85;;;;;;;16.63;28.10;100820.59;5106437;28;20024;-64
2021/12/12 05:53:50;;;;;;;12.90;7.72;;;;;;;16.62;28.14;100822.41;5106464;28;20031;-64
2021/12/12 05:56:16;;;;;;;12.32;7.15;;;;;;;16.61;27.83;100826.09;5106421;28;20269;-64
2021/12/12 05:58:42;;;;;;;16.23;9.32;;;;;;;16.62;27.73;100822.41;5106514;28;20026;-64
2021/12/12 06:01:10;;;;;;;15.52;9.18;;;;;;;16.65;27.89;100824.00;5108511;28;20080;-64
2021/12/12 06:03:39;;;;;;;12.52;7.95;;;;;;;16.66;28.06;100825.69;5110628;28;20056;-63
2021/12/12 06:06:11;;;;;;;13.82;8.20;;;;;;;16.65;27.97;100829.34;5110703;28;20032;-64
2021/12/12 06:08:38;;;;;;;14.75;9.15;;;;;;;16.67;27.83;100829.19;5110589;28;20070;-64
2021/12/12 06:11:04;;;;;;;17.17;8.50;;;;;;;16.66;27.82;100830.16;5110467;28;20028;-64
2021/12/12 06:13:31;;;;;;;14.93;8.88;;;;;;;16.63;27.80;100829.44;5110291;28;20052;-65
2021/12/12 06:15:58;;;;;;;14.35;8.68;;;;;;;16.67;27.79;100827.38;5110476;28;20091;-64
2021/12/12 06:18:27;;;;;;;13.23;7.93;;;;;;;16.64;28.13;100822.28;5110632;28;20027;-64
2021/12/12 06:20:54;;;;;;;14.60;8.75;;;;;;;16.67;28.08;100830.06;5110383;28;20089;-64
2021/12/12 06:23:20;;;;;;;15.35;9.27;;;;;;;16.66;27.79;100836.38;5110076;28;20030;-64
2021/12/12 06:25:47;;;;;;;17.30;10.55;;;;;;;16.66;27.85;100819.47;5110329;28;20044;-64
2021/12/12 06:28:18;;;;;;;16.65;8.20;;;;;;;16.65;27.90;100824.00;5110297;28;20063;-65
2021/12/12 06:30:44;;;;;;;15.00;9.57;;;;;;;16.63;28.25;100836.63;5110079;28;20044;-64
2021/12/12 06:33:11;;;;;;;14.32;8.85;;;;;;;16.61;28.38;100817.19;5109910;28;20100;-65
2021/12/12 06:35:37;;;;;;;16.23;10.20;;;;;;;16.63;27.87;100825.94;5110140;28;20293;-64
2021/12/12 06:38:12;;;;;;;14.50;8.63;;;;;;;16.61;28.05;100823.41;5110203;28;20138;-63
2021/12/12 06:40:39;;;;;;;15.10;9.63;;;;;;;16.60;27.68;100816.38;5109945;28;20052;-63
2021/12/12 06:43:07;;;;;;;18.38;9.73;;;;;;;16.59;27.93;100816.47;5109679;28;20122;-63
2021/12/12 06:45:34;;;;;;;14.70;9.05;;;;;;;16.59;27.94;100825.34;5109746;28;20095;-64
2021/12/12 06:48:02;;;;;;;16.80;9.73;;;;;;;16.59;27.75;100830.69;5109746;28;20031;-64
2021/12/12 06:50:28;;;;;;;17.77;9.13;;;;;;;16.61;28.03;100827.88;5109800;28;20038;-64
2021/12/12 06:52:55;;;;;;;15.82;9.85;;;;;;;16.61;28.03;100819.88;5109579;28;20195;-63
2021/12/12 06:55:22;;;;;;;15.55;9.88;;;;;;;16.62;27.97;100834.94;5109607;28;20032;-64
2021/12/12 06:57:48;;;;;;;14.63;8.82;;;;;;;16.63;27.66;100837.47;5109700;28;20062;-63
2021/12/12 07:00:20;;;;;;;16.35;9.55;;;;;;;16.63;27.76;100840.13;5109985;28;20020;-64
2021/12/12 07:02:46;;;;;;;16.25;10.00;;;;;;;16.66;28.18;100841.72;5106883;28;20027;-63
2021/12/12 07:05:15;;;;;;;16.65;9.55;;;;;;;16.70;27.88;100842.31;5109369;28;20032;-63
2021/12/12 07:07:41;;;;;;;16.92;10.32;;;;;;;16.68;28.15;100841.59;5109094;28;20386;-61
2021/12/12 07:10:09;;;;;;;18.10;9.95;;;;;;;16.68;27.87;100837.09;5105737;28;20043;-62
2021/12/12 07:12:36;;;;;;;21.30;11.63;;;;;;;16.70;28.10;100835.13;5095890;28;20241;-63
2021/12/12 07:15:03;;;;;;;21.13;11.05;;;;;;;16.71;28.00;100834.16;5109671;28;20175;-62
2021/12/12 07:17:29;;;;;;;24.50;11.90;;;;;;;16.73;28.15;100829.53;5098055;28;20225;-62
2021/12/12 07:19:55;;;;;;;22.23;12.00;;;;;;;16.76;28.33;100829.28;5088979;28;20093;-63
2021/12/12 07:22:21;;;;;;;19.42;10.48;;;;;;;16.76;28.79;100823.09;5108807;28;20043;-62
2021/12/12 07:24:47;;;;;;;21.27;9.65;;;;;;;16.87;29.12;100822.16;5100009;28;20039;-62
2021/12/12 07:27:16;;;;;;;23.45;10.93;;;;;;;16.93;29.54;100825.16;5088776;28;20063;-62
2021/12/12 07:29:43;;;;;;;17.90;9.90;;;;;;;16.99;29.20;100821.13;5100331;28;20256;-62
2021/12/12 07:32:09;;;;;;;21.38;10.40;;;;;;;17.04;29.31;100818.09;5108478;28;20093;-62
2021/12/12 07:34:36;;;;;;;19.80;10.55;;;;;;;17.08;29.08;100816.84;5108843;28;20028;-65
2021/12/12 07:37:06;;;;;;;19.98;10.98;;;;;;;17.13;29.11;100816.47;5108727;28;20232;-63
2021/12/12 07:39:32;;;;;;;23.23;10.77;;;;;;;17.15;28.63;100812.66;5108802;28;20257;-62
2021/12/12 07:42:01;;;;;;;16.88;11.43;;;;;;;17.21;28.84;100820.13;5100967;28;20128;-65
2021/12/12 07:44:31;;;;;;;17.10;10.00;;;;;;;17.25;29.03;100812.72;5107935;28;20032;-62
2021/12/12 07:47:00;;;;;;;21.02;11.50;;;;;;;17.27;28.78;100817.94;5107676;28;20087;-62
2021/12/12 07:49:33;;;;;;;23.13;12.32;;;;;;;17.28;28.76;100812.44;5107687;28;20104;-60
2021/12/12 07:52:00;;;;;;;20.27;11.52;;;;;;;17.28;28.38;100814.28;5103211;28;20079;-63
2021/12/12 07:54:27;;;;;;;19.45;10.27;;;;;;;17.27;28.37;100818.78;5108317;28;20047;-64
2021/12/12 07:56:53;;;;;;;24.67;10.85;;;;;;;17.26;28.52;100810.88;5108492;28;20150;-64
2021/12/12 07:59:19;;;;;;;21.70;11.60;;;;;;;17.28;28.46;100822.28;5108249;28;20226;-64
2021/12/12 08:01:49;;;;;;;18.90;10.93;;;;;;;17.26;28.05;100821.56;5108285;28;20220;-61
2021/12/12 08:04:16;;;;;;;20.50;11.57;;;;;;;17.25;28.27;100818.06;5108374;28;20091;-62
2021/12/12 08:06:42;;;;;;;19.63;11.77;;;;;;;17.24;27.95;100813.69;5108276;28;20226;-62
2021/12/12 08:09:10;;;;;;;20.20;10.77;;;;;;;17.24;27.94;100809.19;5108136;28;20032;-62
2021/12/12 08:11:38;;;;;;;20.85;12.30;;;;;;;17.27;28.08;100825.94;5108202;28;20097;-63
2021/12/12 08:14:07;;;;;;;22.13;11.70;;;;;;;17.28;28.11;100819.63;5108026;28;20032;-61
2021/12/12 08:16:33;;;;;;;20.92;11.18;;;;;;;17.26;28.02;100819.78;5107898;28;20035;-63
2021/12/12 08:19:00;;;;;;;19.80;11.27;;;;;;;17.24;28.11;100819.88;5108055;28;20031;-63
2021/12/12 08:21:27;;;;;;;22.73;12.70;;;;;;;17.24;27.90;100822.56;5107965;28;20036;-63
2021/12/12 08:23:55;;;;;;;22.77;11.50;;;;;;;17.22;27.76;100803.13;5107647;28;20137;-62
2021/12/12 08:26:22;;;;;;;18.45;11.15;;;;;;;17.22;28.03;100797.75;5108151;28;20149;-63
2021/12/12 08:28:49;;;;;;;20.48;11.43;;;;;;;17.22;28.23;100794.25;5107682;28;20020;-63
2021/12/12 08:31:16;;;;;;;23.15;12.48;;;;;;;17.23;28.28;100787.94;5107902;28;20167;-63
2021/12/12 08:33:42;;;;;;;28.27;13.70;;;;;;;17.25;28.25;100794.00;5107866;28;20106;-62
2021/12/12 08:36:10;;;;;;;21.65;11.55;;;;;;;17.27;28.16;100775.13;5107758;28;20259;-63
2021/12/12 08:38:36;;;;;;;19.20;11.50;;;;;;;17.30;28.10;100778.38;5107590;28;20036;-63
2021/12/12 08:41:04;;;;;;;20.88;11.52;;;;;;;17.33;28.21;100799.50;5107517;28;20039;-63
2021/12/12 08:43:31;;;;;;;21.27;11.80;;;;;;;17.39;28.24;100807.00;5107217;28;20036;-63
2021/12/12 08:46:09;;;;;;;23.10;12.75;;;;;;;17.44;28.41;100801.25;5107299;28;20081;-63
2021/12/12 08:48:38;;;;;;;19.25;11.02;;;;;;;17.47;28.44;100792.09;5107341;28;20040;-63
2021/12/12 08:51:12;;;;;;;21.73;12.15;;;;;;;17.48;28.52;100800.00;5107700;28;20023;-62
2021/12/12 08:53:41;;;;;;;24.52;12.45;;;;;;;17.50;28.21;100798.03;5107100;28;20035;-62
2021/12/12 08:56:18;;;;;;;25.23;14.27;;;;;;;17.53;28.26;100794.25;5107256;28;20030;-62
2021/12/12 08:58:44;;;;;;;25.55;13.52;;;;;;;17.54;28.10;100796.78;5107021;28;20053;-63
2021/12/12 09:01:14;;;;;;;23.35;13.52;;;;;;;17.57;27.93;100802.84;5107155;28;20052;-64
2021/12/12 09:03:51;;;;;;;29.05;15.23;;;;;;;17.58;28.03;100816.06;5107093;28;20091;-63
2021/12/12 09:06:19;;;;;;;22.42;13.13;;;;;;;17.62;27.69;100808.66;5106994;28;20036;-64
2021/12/12 09:09:05;;;;;;;23.88;13.90;;;;;;;17.63;27.57;100800.47;5106936;28;20023;-64
2021/12/12 09:11:37;;;;;;;28.02;13.98;;;;;;;17.61;27.62;100797.06;5106891;28;20074;-63
2021/12/12 09:14:16;;;;;;;26.55;13.23;;;;;;;17.56;27.37;100803.81;5106783;28;20047;-63
2021/12/12 09:16:49;;;;;;;28.60;13.38;;;;;;;17.52;27.72;100797.91;5106814;28;20032;-63
2021/12/12 09:19:33;;;;;;;25.15;14.18;;;;;;;17.52;27.40;100792.56;5106846;28;20024;-62
2021/12/12 09:22:04;;;;;;;22.63;13.15;;;;;;;17.50;27.47;100792.66;5106584;28;20020;-62
2021/12/12 09:24:29;;;;;;;32.00;16.20;;;;;;;17.50;27.48;100794.50;5106801;28;20031;-62
2021/12/12 09:27:00;;;;;;;27.48;13.88;;;;;;;17.50;27.55;100797.19;5106759;28;20090;-62
2021/12/12 09:30:03;;;;;;;22.95;13.55;;;;;;;17.45;27.36;100791.38;5106834;28;20308;-63
2021/12/12 09:32:58;;;;;;;24.70;13.98;;;;;;;17.44;27.53;100784.34;5074995;28;20044;-62
2021/12/12 09:35:43;;;;;;;23.13;12.73;;;;;;;17.45;27.60;100789.56;5083696;28;20032;-63
2021/12/12 09:38:30;;;;;;;23.58;13.52;;;;;;;17.47;27.41;100792.09;5106496;28;20036;-63
2021/12/12 09:41:35;;;;;;;28.60;13.23;;;;;;;17.51;27.60;100780.97;5106508;28;20035;-63
2021/12/12 09:44:29;;;;;;;25.60;12.98;;;;;;;17.50;27.68;100775.78;5106707;28;20175;-62
2021/12/12 09:47:57;;;;;;;21.85;12.50;;;;;;;17.50;27.58;100779.28;5106452;28;20024;-63
2021/12/12 09:54:03;;;;;;;24.42;13.02;;;;;;;17.50;27.76;100771.25;5106256;28;20263;-63
2021/12/12 09:57:00;;;;;;;24.45;13.95;;;;;;;17.52;27.66;100782.69;5106386;28;20088;-63
2021/12/12 09:59:40;;;;;;;23.83;12.98;;;;;;;17.53;27.66;100771.00;5106272;28;20032;-63
2021/12/12 10:02:22;;;;;;;25.70;13.40;;;;;;;17.53;27.54;100773.66;5106207;28;20028;-62
2021/12/12 10:05:18;;;;;;;27.45;14.88;;;;;;;17.55;27.58;100768.22;5106157;28;20024;-62
2021/12/12 10:08:07;;;;;;;22.17;12.02;;;;;;;17.58;27.72;100767.06;5106146;28;20044;-63
2021/12/12 10:10:40;;;;;;;24.08;13.63;;;;;;;17.58;27.69;100770.59;5106322;28;20260;-62
2021/12/12 10:13:18;;;;;;;26.50;13.80;;;;;;;17.59;27.81;100766.09;5106023;28;20103;-64
2021/12/12 10:15:50;;;;;;;26.58;13.13;;;;;;;17.59;27.89;100776.81;5106158;28;20129;-64
2021/12/12 10:18:29;;;;;;;23.17;13.38;;;;;;;17.57;27.82;100763.56;5106011;28;20062;-63
2021/12/12 10:21:05;;;;;;;25.90;13.55;;;;;;;17.55;27.67;100762.84;5106086;28;20020;-63
2021/12/12 10:23:33;;;;;;;23.40;13.20;;;;;;;17.57;27.86;100760.88;5085905;28;20024;-63
2021/12/12 10:26:26;;;;;;;26.95;14.25;;;;;;;17.57;27.78;100746.66;5086204;28;20055;-62
2021/12/12 10:28:51;;;;;;;23.70;12.52;;;;;;;17.59;27.85;100745.50;5085776;28;20029;-62
2021/12/12 10:31:27;;;;;;;22.27;12.93;;;;;;;17.61;27.78;100756.09;5085808;28;20130;-63
2021/12/12 10:33:57;;;;;;;21.73;13.30;;;;;;;17.62;27.94;100753.28;5087003;28;20048;-63
2021/12/12 10:36:49;;;;;;;21.00;11.00;;;;;;;17.62;27.69;100755.94;5106058;28;20047;-63
2021/12/12 10:39:39;;;;;;;26.40;13.85;;;;;;;17.64;27.91;100761.19;5106221;28;20092;-64
2021/12/12 10:42:10;;;;;;;29.38;14.82;;;;;;;17.63;27.63;100763.00;5105975;28;20134;-63
2021/12/12 10:44:39;;;;;;;24.80;13.45;;;;;;;17.62;27.97;100760.47;5105997;28;20039;-63
2021/12/12 10:47:12;;;;;;;28.35;14.27;;;;;;;17.63;27.80;100744.25;5107703;28;20032;-62
2021/12/12 10:50:02;;;;;;;25.77;13.27;;;;;;;17.63;27.88;100736.25;5110145;28;20047;-63
2021/12/12 10:52:51;;;;;;;26.73;14.20;;;;;;;17.63;27.86;100738.09;5109624;28;20031;-63
2021/12/12 10:55:22;;;;;;;29.45;13.85;;;;;;;17.63;28.20;100741.59;5109586;28;20035;-63
2021/12/12 10:58:11;;;;;;;27.02;14.13;;;;;;;17.63;27.94;100749.63;5109791;28;20027;-63
2021/12/12 11:00:46;;;;;;;24.83;13.63;;;;;;;17.66;27.81;100744.00;5109497;28;20036;-63
2021/12/12 11:03:29;;;;;;;26.65;14.57;;;;;;;17.66;27.72;100752.03;5109366;28;20031;-64
2021/12/12 11:06:16;;;;;;;25.17;13.23;;;;;;;17.68;27.99;100749.19;5109394;28;20080;-63
2021/12/12 11:08:54;;;;;;;24.80;13.43;;;;;;;17.68;28.03;100762.59;5108393;28;20134;-62
2021/12/12 11:11:24;;;;;;;22.92;13.07;;;;;;;-147.58;100.00;61311.59;5106441;28;20165;-63
2021/12/12 11:14:05;;;;;;;29.25;14.73;;;;;;;-147.58;100.00;61311.59;5109205;28;20040;-60
2021/12/12 11:16:50;;;;;;;29.52;14.75;;;;;;;-147.58;100.00;61311.59;5109352;28;20024;-60
2021/12/12 11:19:22;;;;;;;27.88;14.88;;;;;;;-147.58;100.00;61311.59;5108820;28;20032;-60
2021/12/12 11:21:53;;;;;;;25.10;13.68;;;;;;;-147.58;100.00;61311.59;5109278;28;20264;-57
2021/12/12 11:24:37;;;;;;;23.08;12.85;;;;;;;-147.58;100.00;61311.59;5109464;28;20023;-61
2021/12/12 11:27:05;;;;;;;25.02;13.77;;;;;;;-147.58;100.00;61311.59;5109049;28;20065;-60
2021/12/12 11:29:39;;;;;;;25.42;13.95;;;;;;;-147.58;100.00;61311.59;5108032;28;20132;-63
2021/12/12 11:32:10;;;;;;;26.05;14.05;;;;;;;-147.58;100.00;61311.59;5108541;28;20052;-63
2021/12/12 11:34:37;;;;;;;;;;;;;;;-147.58;100.00;61311.59;5108194;28;20048;-64
2021/12/12 11:37:18;;;;;;;28.27;13.40;;;;;;;-147.58;100.00;61311.59;5107898;28;19957;-67
2021/12/12 11:39:52;;;;;;;24.63;13.02;;;;;;;-147.58;100.00;61311.59;5109155;28;20028;-66
2021/12/12 11:42:46;;;;;;;30.13;14.38;;;;;;;-147.58;100.00;61311.59;5107425;28;20222;-65
2021/12/12 11:45:23;;;;;;;26.08;13.95;;;;;;;-147.58;100.00;61311.59;5089058;28;20092;-65
2021/12/12 11:48:12;;;;;;;29.75;12.90;;;;;;;-147.58;100.00;61311.59;5087985;28;20048;-66
2021/12/12 11:50:56;;;;;;;24.83;13.43;;;;;;;-147.58;100.00;61311.59;5088094;28;20025;-65
2021/12/12 11:53:38;;;;;;;28.08;13.73;;;;;;;-147.58;100.00;61311.59;5088342;28;20130;-65
2021/12/12 11:56:12;;;;;;;;;;;;;;;-147.58;100.00;61311.59;5087787;28;20048;-64
2021/12/12 11:59:02;;;;;;;25.00;14.07;;;;;;;-147.58;100.00;61311.59;5087488;28;19905;-65